X  SluitMETAR luchtvaart weer gegevens      EBBR Brussels

Temperatuur

3°C Temperatuur

2°C Dauwpunt

93% Vochtigheid



Wind

 3 KM/U

 2 MPH

 1 M/S

 2 KTS



Kalm
Pal Noord
Huidig weer

Mist Mist
Luchtdruk 1019.92 (hPa) - 30.12 (in)
Zicht 2 (mi) - 3.2 (km)
Vliegveld
Vliegveld code EBBR

Locatie Brussels 10 (km)

Metar:
EBBR 251350Z VRB02KT 3200 BR BKN003 03/02 Q1020 TEMPO BKN004

Tijd: 25-01-2020 14:50